createdAt,value
2022-10-17T00:00:30.113Z,310
2022-10-17T00:05:30.111Z,310
2022-10-17T00:10:30.122Z,310
2022-10-17T00:15:30.106Z,315
2022-10-17T00:20:30.119Z,312.5
2022-10-17T00:25:30.107Z,320
2022-10-17T00:30:30.104Z,305
2022-10-17T00:35:30.117Z,315
2022-10-17T00:40:30.108Z,307.5
2022-10-17T00:45:30.106Z,312.5
2022-10-17T00:50:30.111Z,310
2022-10-17T00:55:30.106Z,312.5
2022-10-17T01:00:30.112Z,305
2022-10-17T01:05:30.122Z,312.5
2022-10-17T01:10:30.136Z,312.5
2022-10-17T01:15:30.112Z,310
2022-10-17T01:20:30.123Z,305
2022-10-17T01:25:30.098Z,310
2022-10-17T01:30:30.119Z,315
2022-10-17T01:35:30.114Z,310
2022-10-17T01:40:30.114Z,315
2022-10-17T01:45:30.116Z,312.5
2022-10-17T01:50:30.118Z,315
2022-10-17T01:55:30.117Z,305
2022-10-17T02:00:30.117Z,320
2022-10-17T02:05:30.111Z,305
2022-10-17T02:10:30.121Z,320
2022-10-17T02:15:30.111Z,317.5
2022-10-17T02:20:30.116Z,310
2022-10-17T02:25:30.110Z,310
2022-10-17T02:30:30.112Z,310
2022-10-17T02:35:30.114Z,310
2022-10-17T02:40:30.108Z,310
2022-10-17T02:45:30.102Z,312.5
2022-10-17T02:50:30.120Z,312.5
2022-10-17T02:55:30.115Z,320
2022-10-17T03:00:30.112Z,320
2022-10-17T03:05:30.121Z,320
2022-10-17T03:10:30.121Z,312.5
2022-10-17T03:15:30.111Z,307.5
2022-10-17T03:20:30.115Z,295
2022-10-17T03:25:30.120Z,305
2022-10-17T03:30:30.108Z,312.5
2022-10-17T03:35:30.115Z,307.5
2022-10-17T03:40:30.101Z,310
2022-10-17T03:45:30.106Z,307.5
2022-10-17T03:50:30.115Z,307.5
2022-10-17T03:55:30.116Z,307.5
2022-10-17T04:00:30.112Z,287.5
2022-10-17T04:05:30.103Z,277.5
2022-10-17T04:10:30.119Z,277.5
2022-10-17T04:15:30.098Z,277.5
2022-10-17T04:20:30.124Z,277.5
2022-10-17T04:25:32.224Z,275
2022-10-17T04:30:30.109Z,277.5
2022-10-17T04:35:30.119Z,277.5
2022-10-17T04:40:30.114Z,277.5
2022-10-17T04:45:30.115Z,300
2022-10-17T04:50:30.109Z,305
2022-10-17T04:55:30.120Z,297.5
2022-10-17T05:00:30.119Z,307.5
2022-10-17T05:05:30.102Z,315
2022-10-17T05:10:30.126Z,307.5
2022-10-17T05:15:30.124Z,307.5
2022-10-17T05:20:30.118Z,317.5
2022-10-17T05:25:30.109Z,310
2022-10-17T05:30:32.585Z,310
2022-10-17T05:35:30.113Z,317.5
2022-10-17T05:40:30.098Z,312.5
2022-10-17T05:45:30.107Z,307.5
2022-10-17T05:50:30.123Z,305
2022-10-17T05:55:30.120Z,320
2022-10-17T06:00:30.164Z,315
2022-10-17T06:05:30.113Z,300
2022-10-17T06:10:30.115Z,307.5
2022-10-17T06:15:30.118Z,302.5
2022-10-17T06:20:30.123Z,302.5
2022-10-17T06:25:30.111Z,315
2022-10-17T06:30:30.104Z,317.5
2022-10-17T06:35:30.098Z,312.5
2022-10-17T06:40:30.101Z,312.5
2022-10-17T06:45:30.102Z,317.5
2022-10-17T06:50:30.098Z,312.5
2022-10-17T06:55:30.092Z,312.5
2022-10-17T07:00:30.104Z,312.5
2022-10-17T07:05:30.097Z,312.5
2022-10-17T07:10:30.111Z,312.5
2022-10-17T07:15:30.098Z,312.5
2022-10-17T07:20:30.110Z,315
2022-10-17T07:25:30.095Z,315
2022-10-17T07:30:30.112Z,315
2022-10-17T07:35:30.090Z,347.5
2022-10-17T07:40:30.104Z,70
2022-10-17T07:45:30.095Z,97.5
2022-10-17T07:50:30.093Z,97.5
2022-10-17T07:55:30.082Z,75
2022-10-17T08:00:30.143Z,87.5
2022-10-17T08:05:30.089Z,80
2022-10-17T08:10:30.096Z,25
2022-10-17T08:15:31.045Z,15
2022-10-17T08:20:30.110Z,55
2022-10-17T08:25:30.114Z,90
2022-10-17T08:30:30.116Z,115
2022-10-17T08:35:30.109Z,90
2022-10-17T08:40:30.127Z,100
2022-10-17T08:45:30.112Z,70
2022-10-17T08:50:30.110Z,90
2022-10-17T08:55:30.118Z,82.5
2022-10-17T09:00:30.136Z,70
2022-10-17T09:05:30.116Z,100
2022-10-17T09:10:30.131Z,147.5
2022-10-17T09:15:30.123Z,175
2022-10-17T09:20:30.133Z,182.5
2022-10-17T09:25:30.112Z,202.5
2022-10-17T09:30:46.332Z,202.5
2022-10-17T09:35:30.115Z,175
2022-10-17T09:40:30.110Z,185
2022-10-17T09:45:30.099Z,185
2022-10-17T09:50:30.105Z,157.5
2022-10-17T09:55:30.093Z,177.5
2022-10-17T10:00:30.163Z,190
2022-10-17T10:05:30.112Z,162.5
2022-10-17T10:10:30.117Z,145
2022-10-17T10:15:30.102Z,200
2022-10-17T10:20:30.115Z,160
2022-10-17T10:25:30.110Z,135
2022-10-17T10:30:30.125Z,185
2022-10-17T10:35:30.127Z,200
2022-10-17T10:40:30.132Z,212.5
2022-10-17T10:50:30.115Z,185
2022-10-17T10:55:30.112Z,107.5
2022-10-17T11:00:30.164Z,170
2022-10-17T11:05:30.109Z,180
2022-10-17T11:10:30.106Z,200
2022-10-17T11:15:30.107Z,165
2022-10-17T11:20:30.130Z,192.5
2022-10-17T11:25:30.114Z,200
2022-10-17T11:30:30.125Z,190
2022-10-17T11:35:30.099Z,190
2022-10-17T11:40:30.140Z,200
2022-10-17T11:45:30.111Z,220
2022-10-17T11:55:30.117Z,205
2022-10-17T12:00:30.128Z,212.5
2022-10-17T12:05:30.109Z,195
2022-10-17T12:10:30.121Z,197.5
2022-10-17T12:15:30.099Z,220
2022-10-17T12:20:30.118Z,190
2022-10-17T12:25:30.306Z,212.5
2022-10-17T12:30:30.114Z,215
2022-10-17T12:35:30.098Z,222.5
2022-10-17T12:40:30.108Z,230
2022-10-17T12:45:30.138Z,235
2022-10-17T12:50:31.924Z,270
2022-10-17T12:55:30.123Z,245
2022-10-17T13:00:30.158Z,260
2022-10-17T13:05:30.101Z,280
2022-10-17T13:10:30.116Z,282.5
2022-10-17T13:15:30.111Z,267.5
2022-10-17T13:20:31.350Z,242.5
2022-10-17T13:25:30.116Z,265
2022-10-17T13:30:31.155Z,260
2022-10-17T13:35:48.519Z,250
2022-10-17T13:40:44.308Z,247.5
2022-10-17T13:45:30.111Z,247.5
2022-10-17T13:50:43.438Z,217.5
2022-10-17T13:55:30.120Z,222.5
2022-10-17T14:00:30.162Z,222.5
2022-10-17T14:05:30.108Z,235
2022-10-17T14:10:30.105Z,225
2022-10-17T14:15:30.123Z,262.5
2022-10-17T14:25:30.123Z,265
2022-10-17T14:30:56.077Z,265
2022-10-17T14:35:41.363Z,262.5
2022-10-17T14:40:30.129Z,265
2022-10-17T14:45:30.106Z,250
2022-10-17T14:50:30.120Z,265
2022-10-17T14:55:30.111Z,262.5
2022-10-17T15:00:30.123Z,250
2022-10-17T15:05:30.119Z,252.5
2022-10-17T15:10:30.112Z,255
2022-10-17T15:15:30.097Z,265
2022-10-17T15:20:30.113Z,275
2022-10-17T15:25:30.113Z,265
2022-10-17T15:30:30.119Z,265
2022-10-17T15:35:30.108Z,237.5
2022-10-17T15:40:30.112Z,262.5
2022-10-17T15:45:30.117Z,277.5
2022-10-17T15:50:30.112Z,262.5
2022-10-17T15:55:30.112Z,275
2022-10-17T16:00:30.147Z,275
2022-10-17T16:05:30.113Z,265
2022-10-17T16:10:30.122Z,277.5
2022-10-17T16:15:30.361Z,275
2022-10-17T16:20:30.113Z,265
2022-10-17T16:25:30.112Z,275
2022-10-17T16:30:30.117Z,285
2022-10-17T16:35:31.788Z,267.5
2022-10-17T16:40:30.112Z,275
2022-10-17T16:45:30.102Z,267.5
2022-10-17T16:50:30.111Z,270
2022-10-17T16:55:30.101Z,260
2022-10-17T17:00:30.199Z,285
2022-10-17T17:05:30.093Z,275
2022-10-17T17:10:30.104Z,272.5
2022-10-17T17:15:30.102Z,265
2022-10-17T17:20:30.120Z,290
2022-10-17T17:25:30.098Z,280
2022-10-17T17:30:30.122Z,322.5
2022-10-17T17:35:30.110Z,305
2022-10-17T17:40:30.110Z,297.5
2022-10-17T17:45:30.103Z,305
2022-10-17T17:50:30.104Z,317.5
2022-10-17T17:55:30.101Z,312.5
2022-10-17T18:00:30.104Z,307.5
2022-10-17T18:05:30.099Z,305
2022-10-17T18:10:30.102Z,305
2022-10-17T18:15:30.108Z,315
2022-10-17T18:20:30.137Z,295
2022-10-17T18:25:30.104Z,297.5
2022-10-17T18:30:32.263Z,315
2022-10-17T18:35:30.098Z,302.5
2022-10-17T18:40:30.115Z,312.5
2022-10-17T18:45:30.106Z,312.5
2022-10-17T18:50:30.114Z,322.5
2022-10-17T18:55:30.118Z,320
2022-10-17T19:00:30.106Z,297.5
2022-10-17T19:05:30.118Z,320
2022-10-17T19:10:30.123Z,302.5
2022-10-17T19:15:30.107Z,315
2022-10-17T19:20:30.115Z,310
2022-10-17T19:25:30.114Z,322.5
2022-10-17T19:30:30.115Z,310
2022-10-17T19:35:30.106Z,317.5
2022-10-17T19:40:30.117Z,315
2022-10-17T19:45:30.105Z,315
2022-10-17T19:50:30.117Z,315
2022-10-17T19:55:30.113Z,310
2022-10-17T20:00:30.128Z,315
2022-10-17T20:05:30.108Z,312.5
2022-10-17T20:10:30.112Z,310
2022-10-17T20:15:30.111Z,310
2022-10-17T20:20:30.121Z,315
2022-10-17T20:25:30.113Z,315
2022-10-17T20:30:30.123Z,317.5
2022-10-17T20:35:30.112Z,317.5
2022-10-17T20:40:34.948Z,315
2022-10-17T20:45:37.253Z,315
2022-10-17T20:50:30.116Z,312.5
2022-10-17T20:55:30.107Z,310
2022-10-17T21:00:30.114Z,310
2022-10-17T21:05:30.110Z,310
2022-10-17T21:10:35.181Z,292.5
2022-10-17T21:15:30.106Z,310
2022-10-17T21:20:30.115Z,357.5
2022-10-17T21:25:30.103Z,330
2022-10-17T21:30:30.113Z,330
2022-10-17T21:35:30.116Z,315
2022-10-17T21:40:30.125Z,312.5
2022-10-17T21:45:30.115Z,310
2022-10-17T21:50:30.112Z,295
2022-10-17T21:55:30.113Z,312.5
2022-10-17T22:00:30.120Z,307.5
2022-10-17T22:05:30.110Z,310
2022-10-17T22:10:30.123Z,297.5
2022-10-17T22:15:30.116Z,305
2022-10-17T22:20:30.121Z,307.5
2022-10-17T22:25:30.122Z,310
2022-10-17T22:30:30.119Z,315
2022-10-17T22:35:30.115Z,305
2022-10-17T22:40:30.126Z,290
2022-10-17T22:45:30.108Z,297.5
2022-10-17T22:50:30.121Z,300
2022-10-17T22:55:30.119Z,310
2022-10-17T23:00:30.124Z,305
2022-10-17T23:05:30.110Z,282.5
2022-10-17T23:10:30.123Z,282.5
2022-10-17T23:15:30.147Z,312.5
2022-10-17T23:20:30.109Z,310
2022-10-17T23:25:30.122Z,310
2022-10-17T23:30:30.123Z,310
2022-10-17T23:35:30.117Z,117.5
2022-10-17T23:40:30.122Z,122.5
2022-10-17T23:45:32.364Z,125
2022-10-17T23:50:30.121Z,310
2022-10-17T23:55:30.111Z,310
